Walnut Creek, Ohio
Current Conditions -  °F | °C
As of 5:53 PM on Tuesday 27 Jan 2015 (Local Time) from KPHD Reporting Station
Overcast Overcast  
Wind Chill: 11°   Ceiling: 2400
Heat Index: 21°   Visibility: 10mi
Dew Point: 12°   Wind: 9mph
Humidity: 68%   Direction: 310°NW
Pressure: 30.11"   Gusts: NA
Location:  40.54°N, 81.72°W
Report Text: KPHD 272253Z AUTO 31008KT 10SM OVC024 M06/M11 A3011 RMK AO2 SLP209 T10611111
Loading
Personal Weather Stations






























Interactive Weather Map New forecast layout! Learn more

10-Day Weather Forecast

Advertisements
Track Severe Weather on mobile